Time;durP1;ratioP1;P1;durP2;ratioP2;P2;SDS_P1;SDS_P2;PMS_P1;PMS_P2;Temp;Humidity;BMP_temperature;BMP_pressure;BME280_temperature;BME280_humidity;BME280_pressure;Samples;Min_cycle;Max_cycle;Signal;HPM_P1;HPM_P2
2022/04/25 00:02:16;;;;;;;5.50;3.38;;;8.40;99.90;;;;;;4969511;28;20400;-83
2022/04/25 00:04:42;;;;;;;5.30;3.50;;;8.40;99.90;;;;;;4985272;28;20058;-83
2022/04/25 00:07:07;;;;;;;6.63;3.28;;;8.40;99.90;;;;;;4985582;28;20035;-83
2022/04/25 00:09:33;;;;;;;6.45;3.50;;;8.40;99.90;;;;;;4968899;28;20057;-85
2022/04/25 00:11:59;;;;;;;6.45;3.33;;;8.50;99.90;;;;;;4970172;28;20035;-83
2022/04/25 00:14:25;;;;;;;7.85;4.63;;;8.50;99.90;;;;;;4967827;28;20170;-83
2022/04/25 00:16:55;;;;;;;6.60;3.85;;;8.50;99.90;;;;;;4970483;28;20381;-83
2022/04/25 00:19:24;;;;;;;6.40;4.35;;;8.50;99.90;;;;;;4970371;28;20033;-83
2022/04/25 00:21:51;;;;;;;6.85;4.30;;;8.50;99.90;;;;;;4969310;28;20045;-87
2022/04/25 00:24:17;;;;;;;7.10;3.40;;;8.50;99.90;;;;;;4968640;28;20031;-83
2022/04/25 00:26:43;;;;;;;8.70;4.75;;;8.50;99.90;;;;;;4966413;28;20038;-83
2022/04/25 00:29:09;;;;;;;7.85;3.80;;;8.50;99.90;;;;;;4969205;28;20089;-83
2022/04/25 00:31:34;;;;;;;6.70;3.95;;;8.40;99.90;;;;;;4968103;28;20034;-83
2022/04/25 00:34:00;;;;;;;6.93;3.40;;;8.40;99.90;;;;;;4968646;28;20038;-83
2022/04/25 00:36:26;;;;;;;5.65;3.67;;;8.40;99.90;;;;;;4970074;28;20050;-84
2022/04/25 00:38:51;;;;;;;5.22;3.40;;;8.50;99.90;;;;;;4984680;28;20157;-83
2022/04/25 00:41:17;;;;;;;6.20;3.90;;;8.50;99.90;;;;;;4968862;28;20034;-84
2022/04/25 00:43:43;;;;;;;6.32;3.70;;;8.50;99.90;;;;;;4967862;28;20046;-83
2022/04/25 00:46:20;;;;;;;7.47;4.40;;;8.50;99.90;;;;;;4968388;28;20062;-84
2022/04/25 00:48:47;;;;;;;6.45;3.97;;;8.50;99.90;;;;;;4969632;28;20398;-83
2022/04/25 00:51:13;;;;;;;5.03;3.50;;;8.50;99.90;;;;;;4970360;28;20026;-83
2022/04/25 00:53:39;;;;;;;6.80;4.32;;;8.50;99.90;;;;;;4968210;28;20031;-83
2022/04/25 00:56:07;;;;;;;6.40;4.50;;;8.60;99.90;;;;;;4982777;28;20481;-84
2022/04/25 00:58:33;;;;;;;8.68;5.07;;;8.50;99.90;;;;;;4968683;28;20150;-83
2022/04/25 01:00:59;;;;;;;7.60;4.40;;;8.40;99.90;;;;;;4968203;28;20031;-83
2022/04/25 01:03:25;;;;;;;7.68;4.80;;;8.50;99.90;;;;;;4952433;28;20174;-83
2022/04/25 01:05:52;;;;;;;8.63;4.97;;;8.50;99.90;;;;;;4970313;28;20035;-85
2022/04/25 01:08:18;;;;;;;10.25;5.70;;;8.60;99.90;;;;;;4969596;28;20039;-83
2022/04/25 01:10:44;;;;;;;8.95;5.63;;;8.60;99.90;;;;;;4961436;28;20107;-83
2022/04/25 01:13:14;;;;;;;9.05;5.40;;;8.60;99.90;;;;;;4970108;28;20506;-83
2022/04/25 01:15:40;;;;;;;8.02;4.72;;;8.60;99.90;;;;;;4969267;28;20027;-90
2022/04/25 01:18:06;;;;;;;10.27;5.57;;;8.60;99.90;;;;;;4968115;28;20119;-85
2022/04/25 01:20:32;;;;;;;8.70;5.00;;;8.60;99.90;;;;;;4967966;28;20130;-83
2022/04/25 01:28:38;;;;;;;9.95;5.45;;;8.40;99.90;;;;;;4969180;28;20069;-83
2022/04/25 01:31:04;;;;;;;10.82;5.93;;;8.30;99.90;;;;;;4967674;28;20126;-84
2022/04/25 01:33:30;;;;;;;11.35;5.95;;;8.30;99.90;;;;;;4971253;28;20031;-83
2022/04/25 01:35:55;;;;;;;9.88;6.25;;;8.30;99.90;;;;;;4973698;28;20030;-83
2022/04/25 01:38:21;;;;;;;10.13;4.70;;;8.30;99.90;;;;;;4973364;28;20062;-83
2022/04/25 01:40:47;;;;;;;10.55;5.90;;;8.30;99.90;;;;;;4987301;28;20118;-84
2022/04/25 01:43:12;;;;;;;12.48;5.88;;;8.30;99.90;;;;;;4973250;28;20035;-83
2022/04/25 01:45:41;;;;;;;8.68;5.35;;;8.20;99.90;;;;;;4955066;28;20163;-84
2022/04/25 01:48:07;;;;;;;9.23;5.57;;;8.20;99.90;;;;;;4976459;28;20035;-83
2022/04/25 01:50:33;;;;;;;8.30;4.95;;;8.10;99.90;;;;;;4971506;28;20035;-84
2022/04/25 01:52:59;;;;;;;8.85;5.38;;;8.20;99.90;;;;;;4973013;28;20375;-82
2022/04/25 01:55:25;;;;;;;10.18;5.20;;;8.10;99.90;;;;;;4972720;28;20039;-86
2022/04/25 01:57:50;;;;;;;10.50;5.20;;;8.00;99.90;;;;;;4972171;28;20228;-82
2022/04/25 02:00:16;;;;;;;10.18;5.47;;;8.00;99.90;;;;;;4966080;28;20486;-83
2022/04/25 02:02:42;;;;;;;11.13;5.72;;;7.90;99.90;;;;;;4977668;28;20054;-83
2022/04/25 02:05:08;;;;;;;10.43;5.18;;;7.90;99.90;;;;;;4973310;28;20379;-83
2022/04/25 02:07:34;;;;;;;9.63;5.72;;;7.90;99.90;;;;;;4972691;28;20050;-84
2022/04/25 02:10:00;;;;;;;9.52;5.55;;;7.90;99.90;;;;;;4972156;28;20407;-84
2022/04/25 02:12:25;;;;;;;8.30;5.15;;;7.90;99.90;;;;;;4955761;28;20074;-84
2022/04/25 02:14:51;;;;;;;10.40;6.38;;;7.90;99.90;;;;;;4973370;28;20037;-84
2022/04/25 02:17:17;;;;;;;11.13;5.70;;;7.90;99.90;;;;;;4973188;28;20058;-84
2022/04/25 02:19:44;;;;;;;9.63;5.38;;;8.00;99.90;;;;;;4954779;28;20031;-84
2022/04/25 02:22:11;;;;;;;9.07;6.00;;;8.00;99.90;;;;;;4970704;28;20074;-84
2022/04/25 02:24:40;;;;;;;9.65;5.43;;;8.10;99.90;;;;;;4971241;28;20445;-84
2022/04/25 02:27:07;;;;;;;8.75;5.43;;;8.10;99.90;;;;;;4971478;28;20038;-84
2022/04/25 02:29:33;;;;;;;8.93;5.10;;;8.10;99.90;;;;;;4972273;28;20114;-87
2022/04/25 02:32:00;;;;;;;9.88;5.50;;;8.20;99.90;;;;;;4971692;28;20618;-84
2022/04/25 02:34:27;;;;;;;10.45;5.97;;;8.20;99.90;;;;;;4978042;28;20524;-83
2022/04/25 02:36:55;;;;;;;9.05;4.95;;;8.20;99.90;;;;;;4978158;28;20051;-84
2022/04/25 02:39:22;;;;;;;9.20;5.13;;;8.20;99.90;;;;;;4971858;28;20027;-84
2022/04/25 02:41:47;;;;;;;9.27;4.70;;;8.20;99.90;;;;;;4970237;28;20027;-85
2022/04/25 02:44:13;;;;;;;10.20;5.25;;;8.30;99.90;;;;;;4954757;28;20114;-83
2022/04/25 02:46:38;;;;;;;8.32;5.13;;;8.30;99.90;;;;;;4971169;28;20059;-84
2022/04/25 02:49:04;;;;;;;7.15;4.13;;;8.30;99.90;;;;;;4955448;28;20034;-84
2022/04/25 02:51:30;;;;;;;9.27;5.07;;;8.30;99.90;;;;;;4985801;28;20039;-84
2022/04/25 02:53:55;;;;;;;8.48;4.80;;;8.40;99.90;;;;;;4954267;28;20043;-85
2022/04/25 02:56:21;;;;;;;8.85;5.28;;;8.30;99.90;;;;;;4986799;28;20023;-84
2022/04/25 02:58:47;;;;;;;8.25;5.05;;;8.40;99.90;;;;;;4971033;28;20031;-83
2022/04/25 03:01:12;;;;;;;7.88;4.70;;;8.40;99.90;;;;;;4969688;28;20069;-84
2022/04/25 03:03:38;;;;;;;8.45;4.45;;;8.40;99.90;;;;;;4972110;28;20097;-84
2022/04/25 03:06:06;;;;;;;8.88;5.13;;;8.40;99.90;;;;;;4970201;28;20034;-86
2022/04/25 03:08:34;;;;;;;9.52;5.05;;;8.40;99.90;;;;;;4970499;28;20034;-84
2022/04/25 03:11:02;;;;;;;10.38;5.40;;;8.40;99.90;;;;;;4970192;28;20130;-84
2022/04/25 03:13:27;;;;;;;8.30;5.45;;;8.40;99.90;;;;;;4967338;28;20114;-83
2022/04/25 03:15:53;;;;;;;8.43;4.53;;;8.50;99.90;;;;;;4969946;28;20569;-83
2022/04/25 03:18:19;;;;;;;8.93;4.97;;;8.50;99.90;;;;;;4969527;28;20054;-84
2022/04/25 03:20:48;;;;;;;8.52;5.10;;;8.50;99.90;;;;;;4953593;28;20655;-84
2022/04/25 03:23:15;;;;;;;8.02;4.63;;;8.50;99.90;;;;;;4970326;28;20090;-83
2022/04/25 03:25:41;;;;;;;8.55;4.57;;;8.50;99.90;;;;;;4971210;28;20038;-84
2022/04/25 03:28:07;;;;;;;8.15;5.40;;;8.40;99.90;;;;;;4970976;28;20528;-89
2022/04/25 03:30:32;;;;;;;7.72;4.28;;;8.40;99.90;;;;;;4970013;28;20760;-84
2022/04/25 03:32:58;;;;;;;7.18;4.43;;;8.40;99.90;;;;;;4971509;28;20506;-84
2022/04/25 03:35:24;;;;;;;7.95;4.82;;;8.40;99.90;;;;;;4970040;28;20410;-84
2022/04/25 03:37:51;;;;;;;8.45;4.60;;;8.50;99.90;;;;;;4971055;28;20114;-84
2022/04/25 03:40:18;;;;;;;7.72;4.95;;;8.40;99.90;;;;;;4968317;28;20550;-84
2022/04/25 03:42:45;;;;;;;8.15;5.22;;;8.50;99.90;;;;;;4982640;28;20758;-84
2022/04/25 03:45:11;;;;;;;7.88;5.63;;;8.50;99.90;;;;;;4986144;28;20494;-84
2022/04/25 03:47:41;;;;;;;7.60;4.78;;;8.50;99.90;;;;;;4953938;28;20066;-84
2022/04/25 03:50:08;;;;;;;8.40;5.25;;;8.40;99.90;;;;;;4970520;28;20508;-84
2022/04/25 03:52:42;;;;;;;8.75;4.63;;;8.40;99.90;;;;;;4964181;28;20122;-84
2022/04/25 03:57:55;;;;;;;8.00;5.18;;;8.40;99.90;;;;;;4967551;28;20458;-83
2022/04/25 04:00:21;;;;;;;10.13;5.80;;;8.40;99.90;;;;;;4965021;28;20097;-83
2022/04/25 04:02:47;;;;;;;10.75;5.30;;;8.40;99.90;;;;;;4975889;28;20490;-84
2022/04/25 04:05:14;;;;;;;8.80;5.03;;;8.40;99.90;;;;;;4973406;28;20104;-84
2022/04/25 04:07:40;;;;;;;10.13;5.60;;;8.40;99.90;;;;;;4974145;28;20030;-83
2022/04/25 04:10:07;;;;;;;9.32;5.30;;;8.40;99.90;;;;;;4973956;28;20046;-82
2022/04/25 04:12:34;;;;;;;9.93;5.68;;;8.40;99.90;;;;;;4980107;28;20062;-83
2022/04/25 04:15:02;;;;;;;9.48;5.82;;;8.40;99.90;;;;;;4967376;28;20058;-83
2022/04/25 04:17:28;;;;;;;9.55;5.70;;;8.40;99.90;;;;;;4969400;28;20134;-84
2022/04/25 04:19:54;;;;;;;9.65;5.38;;;8.30;99.90;;;;;;4969700;28;20047;-83
2022/04/25 04:22:29;;;;;;;10.20;6.13;;;8.30;99.90;;;;;;4965489;28;20034;-84
2022/04/25 04:25:01;;;;;;;9.68;5.78;;;8.30;99.90;;;;;;4982237;28;20173;-84
2022/04/25 04:27:29;;;;;;;10.35;5.60;;;8.20;99.90;;;;;;4986528;28;20162;-83
2022/04/25 04:29:55;;;;;;;9.35;5.80;;;8.30;99.90;;;;;;4971033;28;20050;-84
2022/04/25 04:32:21;;;;;;;10.93;6.18;;;8.20;99.90;;;;;;4969682;28;20526;-83
2022/04/25 04:34:46;;;;;;;9.13;5.55;;;8.30;99.90;;;;;;4969408;28;20050;-83
2022/04/25 04:37:13;;;;;;;9.73;5.88;;;8.30;99.90;;;;;;4953008;28;20117;-84
2022/04/25 04:39:38;;;;;;;8.40;5.63;;;8.30;99.90;;;;;;4970079;28;20030;-85
2022/04/25 04:42:04;;;;;;;9.23;6.15;;;8.40;99.90;;;;;;4967618;28;20043;-83
2022/04/25 04:44:30;;;;;;;11.20;6.53;;;8.40;99.90;;;;;;4970283;28;20490;-84
2022/04/25 04:46:55;;;;;;;11.38;7.03;;;8.50;99.90;;;;;;4956360;28;20029;-84
2022/04/25 04:49:21;;;;;;;10.75;6.38;;;8.50;99.90;;;;;;4969774;28;20494;-84
2022/04/25 04:51:47;;;;;;;10.85;6.68;;;8.50;99.90;;;;;;4969276;28;20031;-83
2022/04/25 04:54:13;;;;;;;10.90;7.32;;;8.40;99.90;;;;;;4969117;28;20102;-84
2022/04/25 04:56:38;;;;;;;11.00;6.05;;;8.40;99.90;;;;;;4969009;28;20035;-83
2022/04/25 04:59:05;;;;;;;12.73;6.20;;;8.40;99.90;;;;;;4953019;28;20753;-84
2022/04/25 05:01:31;;;;;;;10.52;6.60;;;8.40;99.90;;;;;;4968799;28;20043;-84
2022/04/25 05:03:58;;;;;;;11.40;6.22;;;8.40;99.90;;;;;;4951882;28;20038;-86
2022/04/25 05:06:29;;;;;;;10.98;7.07;;;8.50;99.90;;;;;;4967087;28;20039;-84
2022/04/25 05:08:55;;;;;;;13.48;6.70;;;8.50;99.90;;;;;;4973562;28;20026;-84
2022/04/25 05:11:21;;;;;;;10.18;6.78;;;8.50;99.90;;;;;;4972300;28;20058;-84
2022/04/25 05:13:47;;;;;;;11.38;6.65;;;8.60;99.90;;;;;;4977536;28;20034;-84
2022/04/25 05:16:13;;;;;;;10.05;6.18;;;8.60;99.90;;;;;;4972907;28;21396;-85
2022/04/25 05:18:38;;;;;;;12.18;8.00;;;8.50;99.90;;;;;;4956178;28;20031;-84
2022/04/25 05:21:04;;;;;;;11.93;7.63;;;8.60;99.90;;;;;;4987836;28;20401;-84
2022/04/25 05:23:31;;;;;;;10.55;6.90;;;8.60;99.90;;;;;;4972002;28;20039;-85
2022/04/25 05:25:58;;;;;;;11.05;6.90;;;8.70;99.90;;;;;;4988546;28;20041;-84
2022/04/25 05:28:25;;;;;;;13.57;8.00;;;8.70;99.90;;;;;;4974754;28;20031;-85
2022/04/25 05:30:51;;;;;;;12.30;7.20;;;8.70;99.90;;;;;;4972920;28;20042;-85
2022/04/25 05:33:18;;;;;;;11.60;7.70;;;8.80;99.90;;;;;;4973650;28;20031;-84
2022/04/25 05:35:44;;;;;;;12.35;7.53;;;9.00;99.90;;;;;;4980791;28;20026;-85
2022/04/25 05:38:11;;;;;;;13.25;8.27;;;9.10;99.90;;;;;;4973480;28;20404;-84
2022/04/25 05:40:37;;;;;;;11.85;6.85;;;9.00;99.90;;;;;;4970696;28;20486;-87
2022/04/25 05:43:04;;;;;;;12.40;7.22;;;9.10;99.90;;;;;;4971540;28;20023;-83
2022/04/25 05:45:30;;;;;;;10.50;7.18;;;9.10;99.90;;;;;;4971399;28;20069;-84
2022/04/25 05:47:57;;;;;;;12.45;7.78;;;9.00;99.90;;;;;;4957248;28;20051;-84
2022/04/25 05:53:09;;;;;;;11.50;6.57;;;9.10;99.90;;;;;;4958529;28;20097;-84
2022/04/25 05:55:36;;;;;;;12.48;7.70;;;9.20;99.90;;;;;;4971388;28;20051;-84
2022/04/25 05:58:03;;;;;;;12.82;7.32;;;9.10;99.90;;;;;;4968900;28;20122;-83
2022/04/25 06:00:30;;;;;;;12.73;8.73;;;9.10;99.90;;;;;;4970296;28;20460;-84
2022/04/25 06:02:56;;;;;;;11.55;7.78;;;9.10;99.90;;;;;;4969926;28;20035;-77
2022/04/25 06:05:22;;;;;;;13.85;8.07;;;9.20;99.90;;;;;;4971083;28;20422;-81
2022/04/25 06:07:48;;;;;;;13.20;7.70;;;9.30;99.90;;;;;;4985365;28;20031;-81
2022/04/25 06:10:16;;;;;;;12.65;7.32;;;9.30;99.90;;;;;;4972512;28;20099;-80
2022/04/25 06:12:53;;;;;;;11.05;7.28;;;9.40;99.90;;;;;;4978415;28;20051;-89
2022/04/25 06:15:21;;;;;;;12.93;8.68;;;9.40;99.90;;;;;;4971454;28;20027;-84
2022/04/25 06:17:47;;;;;;;14.82;8.60;;;9.50;99.90;;;;;;4970735;28;20027;-84
2022/04/25 06:20:13;;;;;;;14.93;8.35;;;9.60;99.90;;;;;;4968809;28;20037;-85
2022/04/25 06:22:39;;;;;;;13.40;8.65;;;9.70;99.90;;;;;;4971150;28;20035;-86
2022/04/25 06:25:06;;;;;;;13.82;7.70;;;9.90;99.90;;;;;;4972417;28;20094;-84
2022/04/25 06:27:32;;;;;;;14.35;9.02;;;10.10;99.90;;;;;;4987063;28;20461;-85
2022/04/25 06:29:58;;;;;;;14.23;8.63;;;10.10;99.90;;;;;;4969962;28;20027;-83
2022/04/25 06:32:24;;;;;;;15.70;8.45;;;9.80;99.90;;;;;;4970048;28;20038;-83
2022/04/25 06:34:50;;;;;;;14.27;8.30;;;9.60;99.90;;;;;;4971387;28;20054;-84
2022/04/25 06:37:16;;;;;;;14.00;8.23;;;9.50;99.90;;;;;;4969936;28;20066;-82
2022/04/25 06:39:42;;;;;;;15.63;8.50;;;9.30;99.90;;;;;;4968504;28;20118;-83
2022/04/25 06:42:09;;;;;;;13.68;9.05;;;9.30;99.90;;;;;;4970489;28;20027;-83
2022/04/25 06:44:38;;;;;;;16.20;10.18;;;9.40;99.90;;;;;;4977867;28;20042;-84
2022/04/25 06:47:05;;;;;;;14.07;8.77;;;9.60;99.90;;;;;;4970922;28;20034;-83
2022/04/25 06:49:31;;;;;;;14.82;7.90;;;9.70;99.90;;;;;;4969439;28;20495;-83
2022/04/25 06:51:59;;;;;;;13.57;9.27;;;9.90;99.90;;;;;;4970656;28;20030;-83
2022/04/25 06:54:30;;;;;;;14.38;8.75;;;9.90;99.90;;;;;;4970477;28;20043;-83
2022/04/25 06:56:58;;;;;;;15.77;10.52;;;10.10;99.90;;;;;;4976085;28;20516;-83
2022/04/25 06:59:23;;;;;;;15.38;10.27;;;10.40;99.90;;;;;;4971435;28;20070;-83
2022/04/25 07:01:50;;;;;;;14.13;9.15;;;10.50;99.90;;;;;;4971565;28;20066;-83
2022/04/25 07:04:17;;;;;;;12.70;8.90;;;10.60;99.90;;;;;;4970550;28;20506;-85
2022/04/25 07:06:46;;;;;;;13.07;7.95;;;10.80;99.90;;;;;;4967671;28;20066;-83
2022/04/25 07:09:15;;;;;;;15.07;8.77;;;10.50;99.90;;;;;;4970438;28;20030;-83
2022/04/25 07:11:45;;;;;;;14.07;10.00;;;10.40;99.90;;;;;;4974736;28;20163;-84
2022/04/25 07:14:15;;;;;;;15.30;9.50;;;10.70;99.90;;;;;;4969331;28;20046;-85
2022/04/25 07:16:44;;;;;;;15.55;8.68;;;10.90;99.90;;;;;;4965133;28;20073;-87
2022/04/25 07:19:09;;;;;;;14.38;9.73;;;10.90;99.90;;;;;;4970359;28;20031;-85
2022/04/25 07:29:48;;;;;;;13.95;8.90;;;11.10;99.90;;;;;;4967351;28;20037;-84
2022/04/25 07:32:15;;;;;;;12.73;8.68;;;11.40;99.90;;;;;;4969482;28;20401;-85
2022/04/25 07:34:43;;;;;;;14.95;9.60;;;11.50;99.90;;;;;;4966291;28;20031;-83
2022/04/25 07:37:10;;;;;;;13.93;8.23;;;11.90;99.90;;;;;;4982706;28;20034;-83
2022/04/25 07:39:35;;;;;;;19.42;10.35;;;12.10;99.90;;;;;;4967271;28;20129;-84
2022/04/25 07:42:01;;;;;;;14.27;8.65;;;12.60;99.90;;;;;;4965901;28;20155;-83
2022/04/25 07:44:27;;;;;;;14.25;9.57;;;12.00;99.90;;;;;;4966594;28;20410;-84
2022/04/25 07:46:53;;;;;;;12.20;9.23;;;12.20;99.90;;;;;;4968825;28;20066;-82
2022/04/25 07:49:19;;;;;;;13.68;9.07;;;12.20;99.90;;;;;;4968117;28;20061;-83
2022/04/25 07:51:45;;;;;;;12.70;8.43;;;12.40;99.90;;;;;;4968381;28;20192;-84
2022/04/25 07:54:11;;;;;;;13.68;9.57;;;12.30;99.90;;;;;;4950378;28;20054;-82
2022/04/25 07:56:38;;;;;;;13.48;8.57;;;12.20;99.90;;;;;;4981768;28;20116;-82
2022/04/25 07:59:05;;;;;;;12.20;8.50;;;12.50;99.90;;;;;;4974030;28;20027;-83
2022/04/25 08:01:33;;;;;;;14.13;9.55;;;12.10;99.90;;;;;;4966307;28;20035;-83
2022/04/25 08:03:59;;;;;;;14.40;8.35;;;12.20;99.90;;;;;;4969090;28;20093;-85
2022/04/25 08:06:25;;;;;;;14.75;8.95;;;12.00;99.90;;;;;;4963286;28;20731;-85
2022/04/25 08:08:52;;;;;;;13.35;9.20;;;11.80;99.90;;;;;;4965324;28;20130;-82
2022/04/25 08:11:18;;;;;;;13.95;8.43;;;11.80;99.90;;;;;;4969043;28;20034;-85
2022/04/25 08:19:14;;;;;;;13.45;8.60;;;12.70;99.90;;;;;;4982702;28;20245;-83
2022/04/25 08:21:41;;;;;;;14.60;9.38;;;12.60;99.90;;;;;;4965850;28;20042;-83
2022/04/25 08:24:07;;;;;;;11.15;7.97;;;13.20;99.90;;;;;;4968299;28;20027;-82
2022/04/25 08:26:33;;;;;;;11.25;7.65;;;13.50;99.90;;;;;;4971476;28;20725;-82
2022/04/25 08:28:59;;;;;;;12.57;8.75;;;14.00;99.90;;;;;;4968836;28;20035;-83
2022/04/25 08:31:26;;;;;;;13.27;8.50;;;13.60;99.90;;;;;;4971689;28;20042;-82
2022/04/25 08:33:52;;;;;;;12.27;8.30;;;13.50;99.90;;;;;;4977512;28;20114;-83
2022/04/25 08:36:19;;;;;;;11.77;8.10;;;13.20;99.90;;;;;;4985835;28;20030;-87
2022/04/25 08:38:46;;;;;;;11.60;8.07;;;13.70;99.90;;;;;;4976025;28;20181;-88
2022/04/25 08:41:14;;;;;;;14.95;8.93;;;14.30;99.90;;;;;;4971845;28;20114;-88
2022/04/25 08:43:41;;;;;;;12.27;8.50;;;14.60;99.90;;;;;;4971601;28;20035;-86
2022/04/25 08:46:09;;;;;;;10.88;8.25;;;14.60;99.90;;;;;;4968334;28;20031;-89
2022/04/25 08:48:38;;;;;;;11.02;7.65;;;14.30;99.90;;;;;;4970747;28;20038;-83
2022/04/25 08:51:05;;;;;;;11.45;8.27;;;13.90;99.90;;;;;;4969338;28;20033;-82
2022/04/25 08:53:35;;;;;;;12.77;8.40;;;13.60;99.90;;;;;;4968617;28;20049;-83
2022/04/25 08:56:03;;;;;;;10.00;7.30;;;13.60;99.90;;;;;;4966673;28;20039;-80
2022/04/25 08:58:32;;;;;;;11.52;8.32;;;13.80;99.90;;;;;;4966783;28;20031;-90
2022/04/25 09:00:59;;;;;;;12.18;7.80;;;13.50;99.90;;;;;;4980320;28;20554;-79
2022/04/25 09:03:24;;;;;;;11.32;7.78;;;13.20;99.90;;;;;;4963486;28;20487;-80
2022/04/25 09:05:51;;;;;;;12.48;8.73;;;13.40;99.90;;;;;;4959762;28;20034;-82
2022/04/25 09:08:17;;;;;;;10.10;8.05;;;13.30;99.90;;;;;;4987481;28;20086;-81
2022/04/25 09:10:44;;;;;;;11.75;9.45;;;13.00;99.90;;;;;;4970865;28;20402;-89
2022/04/25 09:13:11;;;;;;;11.45;8.35;;;12.60;99.90;;;;;;4972348;28;20027;-83
2022/04/25 09:15:37;;;;;;;10.38;8.13;;;12.80;99.90;;;;;;4988404;28;20107;-83
2022/04/25 09:18:04;;;;;;;12.07;8.68;;;12.80;99.90;;;;;;4976132;28;20034;-84
2022/04/25 09:20:29;;;;;;;11.57;8.80;;;13.30;99.90;;;;;;4971167;28;20049;-84
2022/04/25 09:22:56;;;;;;;14.38;8.00;;;13.50;99.90;;;;;;4969901;28;20034;-82
2022/04/25 09:25:22;;;;;;;12.65;7.60;;;13.30;99.90;;;;;;4965693;28;20030;-83
2022/04/25 09:28:07;;;;;;;9.55;7.40;;;13.30;99.90;;;;;;4963608;28;20034;-87
2022/04/25 09:30:32;;;;;;;11.80;7.82;;;13.50;99.90;;;;;;4982211;28;20526;-84
2022/04/25 09:32:58;;;;;;;10.50;8.07;;;13.50;99.90;;;;;;4971155;28;20058;-84
2022/04/25 09:35:42;;;;;;;14.55;8.55;;;13.50;99.90;;;;;;4965864;28;20054;-85
2022/04/25 09:38:09;;;;;;;10.10;7.47;;;13.00;99.90;;;;;;4965496;28;20034;-83
2022/04/25 09:40:37;;;;;;;12.45;8.10;;;13.10;99.90;;;;;;4961543;28;20126;-84
2022/04/25 09:45:42;;;;;;;10.48;7.85;;;13.20;99.90;;;;;;4984058;28;20078;-80
2022/04/25 09:48:23;;;;;;;9.15;7.05;;;13.30;99.90;;;;;;4986003;28;20027;-80
2022/04/25 09:51:02;;;;;;;9.57;7.13;;;13.40;99.90;;;;;;4977323;28;20041;-80
2022/04/25 09:53:47;;;;;;;11.50;8.02;;;13.60;99.90;;;;;;4983117;28;20037;-80
2022/04/25 09:56:17;;;;;;;11.43;7.97;;;13.80;99.90;;;;;;4991938;28;20022;-80
2022/04/25 09:58:45;;;;;;;10.18;7.05;;;13.70;99.90;;;;;;4989309;28;20085;-80
2022/04/25 10:01:12;;;;;;;9.95;7.38;;;13.70;99.90;;;;;;4985967;28;20495;-80
2022/04/25 10:03:37;;;;;;;9.35;7.07;;;13.70;99.90;;;;;;4991727;28;20117;-82
2022/04/25 10:06:04;;;;;;;11.00;8.23;;;13.60;99.90;;;;;;4982340;28;20110;-83
2022/04/25 10:08:32;;;;;;;10.00;7.95;;;13.20;99.90;;;;;;4980639;28;20034;-80
2022/04/25 10:11:01;;;;;;;11.65;8.50;;;13.20;99.90;;;;;;4991141;28;20041;-80
2022/04/25 10:13:28;;;;;;;16.40;9.25;;;12.80;99.90;;;;;;4991090;28;20157;-80
2022/04/25 10:15:56;;;;;;;12.18;9.23;;;12.70;99.90;;;;;;4991667;28;20022;-80
2022/04/25 10:18:22;;;;;;;14.32;8.48;;;12.60;99.90;;;;;;4992025;28;20092;-80
2022/04/25 10:20:49;;;;;;;13.40;9.75;;;12.40;99.90;;;;;;4987607;28;20052;-79
2022/04/25 10:23:16;;;;;;;18.10;8.82;;;12.30;99.90;;;;;;4991916;28;20025;-81
2022/04/25 10:25:55;;;;;;;13.43;9.85;;;12.30;99.90;;;;;;4979679;28;20030;-80
2022/04/25 10:28:50;;;;;;;14.43;9.70;;;12.10;99.90;;;;;;4990850;28;20034;-81
2022/04/25 10:31:31;;;;;;;13.60;8.88;;;12.50;99.90;;;;;;4991303;28;20042;-84
2022/04/25 10:33:59;;;;;;;14.43;9.15;;;12.80;99.90;;;;;;4988241;28;20037;-85
2022/04/25 10:36:37;;;;;;;12.63;9.10;;;12.80;99.90;;;;;;4981226;28;20057;-84
2022/04/25 10:39:27;;;;;;;16.13;9.55;;;12.80;99.90;;;;;;4990515;28;20029;-84
2022/04/25 10:44:43;;;;;;;16.77;10.30;;;12.30;99.90;;;;;;4990434;28;20049;-81
2022/04/25 10:47:11;;;;;;;13.15;9.38;;;12.20;99.90;;;;;;4995126;28;20042;-82
2022/04/25 10:49:42;;;;;;;14.60;10.35;;;11.90;99.90;;;;;;4983347;28;20382;-81
2022/04/25 10:52:34;;;;;;;12.60;9.40;;;11.70;99.90;;;;;;4991171;28;20042;-84
2022/04/25 10:55:23;;;;;;;13.73;9.25;;;11.80;99.90;;;;;;4974119;28;20438;-84
2022/04/25 10:58:04;;;;;;;17.02;10.10;;;12.00;99.90;;;;;;4991614;28;20053;-81
2022/04/25 11:00:45;;;;;;;15.32;11.43;;;12.10;99.90;;;;;;4982125;28;20491;-81
2022/04/25 11:03:15;;;;;;;13.57;9.00;;;12.40;99.90;;;;;;4979089;28;20030;-84
2022/04/25 11:05:50;;;;;;;14.73;9.40;;;12.40;99.90;;;;;;4993002;28;20034;-83
2022/04/25 11:08:19;;;;;;;13.27;8.35;;;12.50;99.90;;;;;;5005081;28;20030;-84
2022/04/25 11:10:49;;;;;;;12.55;8.60;;;12.70;99.90;;;;;;5007143;28;20038;-86
2022/04/25 11:13:17;;;;;;;14.15;8.90;;;13.00;99.90;;;;;;4997353;28;20022;-84
2022/04/25 11:15:47;;;;;;;13.18;9.43;;;13.40;99.90;;;;;;4991838;28;20031;-85
2022/04/25 11:18:19;;;;;;;;;;;13.30;99.90;;;;;;4990756;28;20439;-84
2022/04/25 11:21:22;;;;;;;9.85;7.43;;;12.80;99.90;;;;;;4990294;28;20280;-84
2022/04/25 11:23:50;;;;;;;10.55;7.78;;;12.70;99.90;;;;;;4964372;28;20093;-84
2022/04/25 11:26:22;;;;;;;12.80;8.15;;;12.60;99.90;;;;;;4994843;28;20014;-80
2022/04/25 11:29:04;;;;;;;12.07;8.43;;;12.50;99.90;;;;;;4991633;28;20112;-80
2022/04/25 11:31:38;;;;;;;16.35;8.05;;;12.30;99.90;;;;;;4984887;28;20047;-80
2022/04/25 11:34:07;;;;;;;12.25;7.78;;;12.20;99.90;;;;;;4969335;28;20042;-84
2022/04/25 11:36:38;;;;;;;11.55;8.73;;;12.30;99.90;;;;;;4991431;28;20071;-85
2022/04/25 11:41:48;;;;;;;10.40;6.80;;;12.30;99.90;;;;;;4991644;28;20042;-80
2022/04/25 11:44:14;;;;;;;10.82;7.05;;;12.30;99.90;;;;;;4972846;28;20046;-80
2022/04/25 11:46:43;;;;;;;10.57;6.85;;;12.30;99.90;;;;;;4985650;28;20030;-80
2022/04/25 11:49:09;;;;;;;9.48;6.82;;;12.00;99.90;;;;;;4988746;28;20084;-80
2022/04/25 11:51:39;;;;;;;9.63;6.75;;;11.90;99.90;;;;;;4982817;28;20046;-81
2022/04/25 11:54:07;;;;;;;8.82;6.95;;;12.00;99.90;;;;;;4992109;28;20161;-82
2022/04/25 11:56:36;;;;;;;11.98;7.38;;;11.70;99.90;;;;;;4985466;28;20038;-77
2022/04/25 11:59:12;;;;;;;12.52;7.93;;;11.50;99.90;;;;;;4985038;28;20026;-76
2022/04/25 12:01:43;;;;;;;13.50;7.47;;;11.20;99.90;;;;;;4956257;28;20498;-81
2022/04/25 12:04:21;;;;;;;8.50;5.38;;;11.10;99.90;;;;;;4951110;28;20121;-80
2022/04/25 12:06:47;;;;;;;8.30;5.40;;;11.20;99.90;;;;;;4966448;28;20497;-85
2022/04/25 12:17:39;;;;;;;8.13;5.80;;;11.30;99.90;;;;;;4968464;28;20300;-81
2022/04/25 12:20:09;;;;;;;9.10;5.72;;;11.40;99.90;;;;;;4962314;28;20109;-80
2022/04/25 12:22:36;;;;;;;10.07;5.80;;;11.40;99.90;;;;;;4970957;28;20513;-85
2022/04/25 12:25:19;;;;;;;6.78;4.50;;;11.50;99.90;;;;;;4970219;28;20035;-80
2022/04/25 12:28:07;;;;;;;6.45;3.95;;;11.60;99.90;;;;;;4954548;28;20035;-85
2022/04/25 12:30:57;;;;;;;8.15;5.82;;;11.80;99.90;;;;;;4969384;28;20479;-80
2022/04/25 12:33:25;;;;;;;;;;;11.70;99.90;;;;;;4954051;28;20444;-80
2022/04/25 12:36:06;;;;;;;6.60;4.57;;;11.90;99.90;;;;;;4969919;28;19922;-86
2022/04/25 12:38:35;;;;;;;5.43;3.78;;;12.10;99.90;;;;;;4969903;28;20097;-81
2022/04/25 12:41:03;;;;;;;5.88;3.90;;;12.00;99.90;;;;;;4960818;28;20125;-86
2022/04/25 12:43:42;;;;;;;7.15;4.00;;;11.70;99.90;;;;;;4971272;28;20651;-85
2022/04/25 12:46:08;;;;;;;7.10;4.20;;;11.50;99.90;;;;;;4956442;28;20089;-85
2022/04/25 12:49:00;;;;;;;6.85;4.20;;;11.40;99.90;;;;;;4977354;28;20109;-86
2022/04/25 12:51:33;;;;;;;9.25;4.97;;;11.20;99.90;;;;;;4982023;28;20038;-85
2022/04/25 12:53:59;;;;;;;6.68;4.68;;;10.90;99.90;;;;;;4959136;28;20025;-85
2022/04/25 12:56:30;;;;;;;7.18;4.57;;;10.90;99.90;;;;;;4949650;28;20055;-86
2022/04/25 12:58:57;;;;;;;6.65;4.43;;;10.70;99.90;;;;;;4950377;29;20028;-86
2022/04/25 13:01:34;;;;;;;5.18;3.47;;;10.70;99.90;;;;;;4952267;28;20090;-85
2022/04/25 13:04:08;;;;;;;5.75;3.90;;;10.60;99.90;;;;;;4968917;28;20039;-85
2022/04/25 13:06:36;;;;;;;7.28;3.80;;;10.80;99.90;;;;;;4960517;28;20031;-85
2022/04/25 13:09:03;;;;;;;6.32;3.70;;;10.80;99.90;;;;;;4960058;28;20039;-86
2022/04/25 13:11:29;;;;;;;6.00;3.50;;;10.60;99.90;;;;;;4971825;28;20035;-86
2022/04/25 13:13:56;;;;;;;5.97;3.75;;;10.50;99.90;;;;;;4972183;28;20081;-86
2022/04/25 13:16:22;;;;;;;6.25;3.72;;;10.60;99.90;;;;;;4950732;28;20027;-86
2022/04/25 13:18:48;;;;;;;4.82;3.25;;;10.60;99.90;;;;;;4969353;28;20429;-86
2022/04/25 13:21:16;;;;;;;6.38;3.78;;;10.70;99.90;;;;;;4961914;28;20057;-85
2022/04/25 13:23:41;;;;;;;6.60;3.75;;;10.60;99.90;;;;;;4974730;28;20037;-86
2022/04/25 13:26:09;;;;;;;6.15;3.83;;;10.40;99.90;;;;;;4976799;28;20031;-85
2022/04/25 13:28:35;;;;;;;7.03;3.80;;;10.50;99.90;;;;;;4976381;28;20039;-84
2022/04/25 13:31:01;;;;;;;5.95;4.40;;;10.70;99.90;;;;;;4982636;28;20078;-85
2022/04/25 13:33:27;;;;;;;6.47;3.83;;;10.90;99.90;;;;;;4974440;28;20382;-84